Time;durP1;ratioP1;P1;durP2;ratioP2;P2;SDS_P1;SDS_P2;PMS_P1;PMS_P2;Temp;Humidity;BMP_temperature;BMP_pressure;BME280_temperature;BME280_humidity;BME280_pressure;Samples;Min_cycle;Max_cycle;Signal;HPM_P1;HPM_P2
2022/06/22 00:00:34;;;;;;;5.63;2.40;;;15.90;99.90;;;;;;5029237;28;20822;-36
2022/06/22 00:03:00;;;;;;;3.17;2.10;;;15.90;99.90;;;;;;5029383;28;20799;-36
2022/06/22 00:05:35;;;;;;;2.53;2.13;;;15.90;99.90;;;;;;5029700;28;20427;-36
2022/06/22 00:08:05;;;;;;;3.57;2.37;;;15.90;99.90;;;;;;5028893;28;20420;-35
2022/06/22 00:10:30;;;;;;;2.57;2.20;;;15.90;99.90;;;;;;5029655;28;20748;-36
2022/06/22 00:12:59;;;;;;;6.87;2.73;;;16.00;99.90;;;;;;5029084;28;20436;-36
2022/06/22 00:15:35;;;;;;;3.27;2.27;;;16.00;99.90;;;;;;5029452;28;20190;-35
2022/06/22 00:18:18;;;;;;;3.03;2.30;;;16.00;99.90;;;;;;5028878;28;20470;-35
2022/06/22 00:20:50;;;;;;;3.50;2.47;;;16.00;99.90;;;;;;5029547;28;20463;-36
2022/06/22 00:23:15;;;;;;;3.40;2.40;;;16.10;99.90;;;;;;5029273;28;20475;-36
2022/06/22 00:25:42;;;;;;;6.30;2.60;;;16.00;99.90;;;;;;5029205;28;20413;-35
2022/06/22 00:28:34;;;;;;;2.87;2.30;;;16.00;99.90;;;;;;5029271;28;20194;-36
2022/06/22 00:31:20;;;;;;;4.10;2.30;;;16.00;99.90;;;;;;5031671;28;20467;-35
2022/06/22 00:34:10;;;;;;;5.70;2.33;;;15.90;99.90;;;;;;5032802;28;20425;-36
2022/06/22 00:36:41;;;;;;;2.90;2.37;;;15.90;99.90;;;;;;5032517;28;20916;-36
2022/06/22 00:39:26;;;;;;;4.87;2.90;;;15.80;99.90;;;;;;5032772;28;20425;-35
2022/06/22 00:41:56;;;;;;;3.33;2.73;;;15.80;99.90;;;;;;5032773;28;20453;-36
2022/06/22 00:44:27;;;;;;;3.67;2.60;;;15.80;99.90;;;;;;5031513;28;20464;-36
2022/06/22 00:47:04;;;;;;;3.80;2.57;;;15.70;99.90;;;;;;5032055;28;20413;-35
2022/06/22 00:49:31;;;;;;;4.97;2.80;;;15.70;99.90;;;;;;5041871;28;20424;-35
2022/06/22 00:52:05;;;;;;;3.40;2.37;;;15.70;99.90;;;;;;5035466;28;20474;-36
2022/06/22 00:54:33;;;;;;;4.53;2.63;;;15.70;99.90;;;;;;5032484;28;21189;-36
2022/06/22 00:57:09;;;;;;;3.50;2.70;;;15.70;99.90;;;;;;5031892;28;20524;-35
2022/06/22 00:59:44;;;;;;;2.60;2.40;;;15.60;99.90;;;;;;5032445;28;20437;-35
2022/06/22 01:02:13;;;;;;;2.70;2.50;;;15.50;99.90;;;;;;5032328;28;20456;-35
2022/06/22 01:04:50;;;;;;;4.07;2.73;;;15.50;99.90;;;;;;5032397;28;20461;-35
2022/06/22 01:07:40;;;;;;;3.73;2.97;;;15.40;99.90;;;;;;5031804;28;20783;-35
2022/06/22 01:10:27;;;;;;;5.00;2.70;;;15.30;99.90;;;;;;5032339;28;20448;-35
2022/06/22 01:13:08;;;;;;;3.90;2.47;;;15.20;99.90;;;;;;5032057;28;20425;-36
2022/06/22 01:15:41;;;;;;;3.60;2.70;;;15.10;99.90;;;;;;5023218;28;20448;-35
2022/06/22 01:18:13;;;;;;;3.03;2.83;;;15.00;99.90;;;;;;5031680;28;20524;-36
2022/06/22 01:20:44;;;;;;;3.83;2.60;;;14.90;99.90;;;;;;5032302;28;20948;-36
2022/06/22 01:23:16;;;;;;;3.00;2.70;;;14.80;99.90;;;;;;5031976;28;20456;-36
2022/06/22 01:26:09;;;;;;;3.40;2.17;;;14.80;99.90;;;;;;5031920;28;20445;-35
2022/06/22 01:28:35;;;;;;;3.90;2.30;;;14.70;99.90;;;;;;5031408;28;20805;-36
2022/06/22 01:31:11;;;;;;;5.67;3.40;;;14.80;99.90;;;;;;5030624;28;20456;-35
2022/06/22 01:33:46;;;;;;;5.77;2.87;;;14.70;99.90;;;;;;5031986;28;20243;-35
2022/06/22 01:36:33;;;;;;;4.03;3.17;;;14.60;99.90;;;;;;5031722;28;20412;-36
2022/06/22 01:39:01;;;;;;;2.80;2.40;;;14.60;99.90;;;;;;5031780;28;20459;-36
2022/06/22 01:41:29;;;;;;;4.43;2.97;;;14.50;99.90;;;;;;5030922;28;20425;-36
2022/06/22 01:44:06;;;;;;;4.50;2.97;;;14.50;99.90;;;;;;5028884;28;20454;-36
2022/06/22 01:46:50;;;;;;;4.30;3.13;;;14.50;99.90;;;;;;5030852;28;20740;-36
2022/06/22 01:49:31;;;;;;;3.57;2.90;;;14.40;99.90;;;;;;5038839;28;20420;-36
2022/06/22 01:52:10;;;;;;;3.97;3.57;;;14.50;99.90;;;;;;5035317;28;20441;-35
2022/06/22 01:54:43;;;;;;;5.57;3.30;;;14.50;99.90;;;;;;5031558;28;20420;-36
2022/06/22 01:57:25;;;;;;;3.53;3.23;;;14.60;99.90;;;;;;5030697;28;20448;-35
2022/06/22 02:00:09;;;;;;;4.20;3.47;;;14.50;99.90;;;;;;5031296;28;20433;-35
2022/06/22 02:02:44;;;;;;;4.10;3.40;;;14.60;99.90;;;;;;5031378;28;20422;-36
2022/06/22 02:05:38;;;;;;;4.77;3.20;;;14.60;99.90;;;;;;5031221;28;20428;-35
2022/06/22 02:08:17;;;;;;;6.07;3.93;;;14.60;99.90;;;;;;5029324;28;20428;-36
2022/06/22 02:11:12;;;;;;;4.63;3.50;;;14.50;99.90;;;;;;5031308;28;20413;-35
2022/06/22 02:14:00;;;;;;;4.50;3.47;;;14.50;99.90;;;;;;5027304;28;20510;-35
2022/06/22 02:16:59;;;;;;;4.43;4.00;;;14.40;99.90;;;;;;5030808;28;20429;-35
2022/06/22 02:19:29;;;;;;;4.33;3.60;;;14.40;99.90;;;;;;5030645;28;20430;-36
2022/06/22 02:21:57;;;;;;;4.43;3.30;;;14.30;99.90;;;;;;5029489;28;20417;-36
2022/06/22 02:24:34;;;;;;;3.50;3.20;;;14.30;99.90;;;;;;5030983;28;20468;-35
2022/06/22 02:27:01;;;;;;;4.20;3.80;;;14.30;99.90;;;;;;5030374;28;20429;-36
2022/06/22 02:29:50;;;;;;;3.83;3.40;;;14.30;99.90;;;;;;5030593;28;20492;-35
2022/06/22 02:32:20;;;;;;;3.47;3.17;;;14.30;99.90;;;;;;5030649;28;20901;-35
2022/06/22 02:34:54;;;;;;;5.03;3.73;;;14.30;99.90;;;;;;5030698;28;20451;-36
2022/06/22 02:37:24;;;;;;;4.20;3.47;;;14.30;99.90;;;;;;5030093;28;20477;-35
2022/06/22 02:39:58;;;;;;;4.10;3.10;;;14.20;99.90;;;;;;5029585;28;20421;-36
2022/06/22 02:45:10;;;;;;;3.43;3.10;;;14.20;99.90;;;;;;5028699;28;20433;-35
2022/06/22 02:47:47;;;;;;;3.10;2.87;;;14.10;99.90;;;;;;5030102;28;20484;-35
2022/06/22 02:50:32;;;;;;;5.50;3.23;;;14.10;99.90;;;;;;5042905;28;20438;-35
2022/06/22 02:53:04;;;;;;;3.03;2.83;;;14.10;99.90;;;;;;5030465;28;20475;-35
2022/06/22 02:55:34;;;;;;;4.33;3.40;;;14.10;99.90;;;;;;5028909;28;20483;-35
2022/06/22 02:58:02;;;;;;;5.67;3.70;;;14.00;99.90;;;;;;5029844;28;20507;-35
2022/06/22 03:00:40;;;;;;;3.97;3.57;;;13.90;99.90;;;;;;5030155;28;20437;-35
2022/06/22 03:03:11;;;;;;;4.60;3.63;;;13.90;99.90;;;;;;5030236;28;20460;-35
2022/06/22 03:05:39;;;;;;;4.33;3.80;;;13.90;99.90;;;;;;5030063;28;20500;-35
2022/06/22 03:08:06;;;;;;;6.13;4.70;;;13.90;99.90;;;;;;5029597;28;20425;-35
2022/06/22 03:10:43;;;;;;;4.53;3.73;;;13.90;99.90;;;;;;5030186;28;20516;-35
2022/06/22 03:13:16;;;;;;;6.00;3.70;;;14.00;99.90;;;;;;5030054;28;20440;-35
2022/06/22 03:15:42;;;;;;;3.60;3.30;;;13.90;99.90;;;;;;5030329;28;20436;-35
2022/06/22 03:18:14;;;;;;;3.80;3.50;;;13.90;99.90;;;;;;5028057;28;20475;-36
2022/06/22 03:20:48;;;;;;;3.60;3.23;;;13.90;99.90;;;;;;5030371;28;20490;-36
2022/06/22 03:23:45;;;;;;;3.63;3.20;;;14.00;99.90;;;;;;5029942;28;20460;-35
2022/06/22 03:26:33;;;;;;;4.53;3.30;;;14.00;99.90;;;;;;5030075;28;20891;-35
2022/06/22 03:29:22;;;;;;;3.70;3.00;;;14.00;99.90;;;;;;5029665;28;20436;-35
2022/06/22 03:31:59;;;;;;;3.70;3.10;;;13.90;99.90;;;;;;5030047;28;20444;-35
2022/06/22 03:34:36;;;;;;;4.50;3.00;;;13.90;99.90;;;;;;5029741;28;20450;-35
2022/06/22 03:37:05;;;;;;;3.83;3.50;;;13.90;99.90;;;;;;5029008;28;20915;-36
2022/06/22 03:39:36;;;;;;;4.17;3.77;;;13.80;99.90;;;;;;5029878;28;20488;-35
2022/06/22 03:42:08;;;;;;;4.00;3.60;;;13.60;99.90;;;;;;5029783;28;20425;-35
2022/06/22 03:44:46;;;;;;;4.57;3.70;;;13.50;99.90;;;;;;5028204;28;20806;-36
2022/06/22 03:47:21;;;;;;;4.73;4.10;;;13.60;99.90;;;;;;5029094;28;20413;-35
2022/06/22 03:49:53;;;;;;;5.67;4.00;;;13.60;99.90;;;;;;5030591;28;20428;-35
2022/06/22 03:52:36;;;;;;;8.57;4.60;;;13.70;99.90;;;;;;5029712;28;20417;-35
2022/06/22 03:55:07;;;;;;;8.30;3.70;;;13.80;99.90;;;;;;5029582;28;20486;-35
2022/06/22 03:57:37;;;;;;;4.73;4.23;;;13.80;99.90;;;;;;5029106;28;20433;-35
2022/06/22 04:00:05;;;;;;;6.83;4.57;;;14.00;99.90;;;;;;5029228;28;20850;-36
2022/06/22 04:02:32;;;;;;;4.40;4.00;;;14.10;99.90;;;;;;5029876;28;20819;-36
2022/06/22 04:04:59;;;;;;;4.00;3.70;;;14.20;99.90;;;;;;5032972;28;20468;-35
2022/06/22 04:07:36;;;;;;;5.30;3.70;;;14.30;99.90;;;;;;5033035;28;20417;-35
2022/06/22 04:10:04;;;;;;;4.43;4.03;;;14.30;99.90;;;;;;5033323;28;20421;-35
2022/06/22 04:12:38;;;;;;;7.13;4.33;;;14.30;99.90;;;;;;5033354;28;20786;-35
2022/06/22 04:15:39;;;;;;;5.90;4.20;;;14.30;99.90;;;;;;5033530;28;20425;-35
2022/06/22 04:18:15;;;;;;;6.57;4.00;;;14.30;99.90;;;;;;5032839;28;20421;-35
2022/06/22 04:20:54;;;;;;;4.67;4.20;;;14.30;99.90;;;;;;5033187;28;20782;-35
2022/06/22 04:23:36;;;;;;;6.77;4.47;;;14.40;99.90;;;;;;5033224;28;20468;-35
2022/06/22 04:26:10;;;;;;;5.33;4.60;;;14.50;99.90;;;;;;5033327;28;20416;-36
2022/06/22 04:28:39;;;;;;;4.90;4.33;;;14.50;99.90;;;;;;5032631;28;20417;-35
2022/06/22 04:31:07;;;;;;;5.70;4.57;;;14.60;99.90;;;;;;5031933;28;20852;-35
2022/06/22 04:33:41;;;;;;;5.30;4.90;;;14.70;99.90;;;;;;5029479;28;20457;-35
2022/06/22 04:36:10;;;;;;;5.17;4.67;;;14.70;99.90;;;;;;5032853;28;20503;-36
2022/06/22 04:38:51;;;;;;;5.03;4.57;;;14.80;99.90;;;;;;5031666;28;20428;-35
2022/06/22 04:41:29;;;;;;;4.77;4.37;;;14.90;99.90;;;;;;5023773;28;20429;-35
2022/06/22 04:44:00;;;;;;;4.53;4.00;;;15.00;99.90;;;;;;5025304;28;21016;-35
2022/06/22 04:46:35;;;;;;;5.53;4.33;;;15.10;99.90;;;;;;5031326;28;20932;-35
2022/06/22 04:49:06;;;;;;;4.30;3.90;;;15.20;99.90;;;;;;5037747;28;20995;-38
2022/06/22 04:51:37;;;;;;;4.93;4.53;;;15.30;99.90;;;;;;5039189;28;20460;-38
2022/06/22 04:54:26;;;;;;;5.63;5.10;;;15.40;99.90;;;;;;5032596;28;20452;-38
2022/06/22 04:56:53;;;;;;;8.47;4.33;;;15.60;99.90;;;;;;5030711;28;20445;-38
2022/06/22 04:59:21;;;;;;;7.23;4.60;;;15.70;99.90;;;;;;5032557;28;20526;-36
2022/06/22 05:01:49;;;;;;;5.97;4.53;;;15.80;99.90;;;;;;5031236;28;20995;-36
2022/06/22 05:04:26;;;;;;;7.97;5.10;;;15.90;99.90;;;;;;5032420;28;20468;-35
2022/06/22 05:07:29;;;;;;;6.57;5.40;;;15.90;99.90;;;;;;5032178;28;20516;-36
2022/06/22 05:10:24;;;;;;;7.30;5.00;;;15.90;99.90;;;;;;5032386;28;20431;-35
2022/06/22 05:12:56;;;;;;;7.80;4.83;;;15.80;99.90;;;;;;5031272;28;20425;-36
2022/06/22 05:15:37;;;;;;;5.47;4.80;;;15.90;99.90;;;;;;5030077;28;20413;-36
2022/06/22 05:18:10;;;;;;;6.00;5.50;;;16.00;99.90;;;;;;5031631;28;20417;-36
2022/06/22 05:20:46;;;;;;;8.53;6.13;;;16.10;99.90;;;;;;5032263;28;20412;-35
2022/06/22 05:23:13;;;;;;;6.53;5.93;;;16.30;99.90;;;;;;5031943;28;20902;-36
2022/06/22 05:25:42;;;;;;;9.70;6.80;;;16.30;99.90;;;;;;5031748;28;20458;-35
2022/06/22 05:28:27;;;;;;;8.77;6.90;;;16.40;99.90;;;;;;5031578;28;20791;-36
2022/06/22 05:31:02;;;;;;;5.63;4.53;;;16.50;99.90;;;;;;5029604;28;20436;-35
2022/06/22 05:33:29;;;;;;;8.37;5.50;;;16.60;99.90;;;;;;5031919;28;20428;-36
2022/06/22 05:36:03;;;;;;;7.13;5.50;;;16.80;99.90;;;;;;5031741;28;20508;-38
2022/06/22 05:38:30;;;;;;;6.90;5.80;;;16.90;99.90;;;;;;5031380;28;20428;-39
2022/06/22 05:40:56;;;;;;;6.37;5.70;;;17.10;99.90;;;;;;5031916;28;20433;-38
2022/06/22 05:43:23;;;;;;;7.50;5.87;;;17.20;99.90;;;;;;5028974;28;20465;-36
2022/06/22 05:45:57;;;;;;;6.87;5.83;;;17.40;99.90;;;;;;5026840;28;20492;-36
2022/06/22 05:48:26;;;;;;;6.60;5.77;;;17.40;99.90;;;;;;5030507;28;20467;-36
2022/06/22 05:51:16;;;;;;;6.43;5.33;;;17.60;99.90;;;;;;5019275;28;20460;-36
2022/06/22 05:53:51;;;;;;;7.40;5.97;;;17.70;99.90;;;;;;5031395;28;20425;-36
2022/06/22 05:56:20;;;;;;;6.60;5.90;;;17.90;99.90;;;;;;5023489;28;20444;-36
2022/06/22 05:59:12;;;;;;;5.87;5.27;;;17.90;99.90;;;;;;5029603;28;20421;-36
2022/06/22 06:02:03;;;;;;;7.20;5.80;;;18.20;99.90;;;;;;5021994;28;20947;-36
2022/06/22 06:04:48;;;;;;;7.27;5.57;;;18.40;99.90;;;;;;5023167;28;20467;-36
2022/06/22 06:07:29;;;;;;;8.77;6.17;;;18.60;99.90;;;;;;5030748;28;20524;-36
2022/06/22 06:09:54;;;;;;;6.10;5.20;;;18.80;99.90;;;;;;5024933;28;20429;-36
2022/06/22 06:12:38;;;;;;;6.73;5.57;;;19.00;99.90;;;;;;5026709;28;20924;-36
2022/06/22 06:15:05;;;;;;;6.17;5.57;;;19.10;99.90;;;;;;5029717;28;20186;-36
2022/06/22 06:17:38;;;;;;;7.50;5.27;;;19.10;99.90;;;;;;5030332;28;20433;-36
2022/06/22 06:20:07;;;;;;;6.13;5.47;;;19.10;99.90;;;;;;5030976;28;21161;-36
2022/06/22 06:22:36;;;;;;;5.63;5.13;;;19.20;99.90;;;;;;5030963;28;20532;-36
2022/06/22 06:28:06;;;;;;;5.70;4.97;;;19.40;99.90;;;;;;5029269;28;20791;-36
2022/06/22 06:30:43;;;;;;;7.70;5.70;;;19.40;99.90;;;;;;5036123;28;20464;-36
2022/06/22 06:33:21;;;;;;;8.47;5.90;;;19.40;99.90;;;;;;5030740;28;20440;-36
2022/06/22 06:35:48;;;;;;;9.97;5.53;;;19.40;99.90;;;;;;5030670;28;20508;-36
2022/06/22 06:38:36;;;;;;;6.90;5.00;;;19.50;99.90;;;;;;5029994;28;20429;-36
2022/06/22 06:41:15;;;;;;;6.93;6.10;;;19.70;99.90;;;;;;5030681;28;20429;-36
2022/06/22 06:43:47;;;;;;;9.10;6.20;;;19.80;99.90;;;;;;5030489;28;20947;-36
2022/06/22 06:46:19;;;;;;;7.33;6.30;;;19.80;99.90;;;;;;5030144;28;20424;-35
2022/06/22 06:48:50;;;;;;;6.00;5.30;;;19.80;99.90;;;;;;5031445;28;20436;-35
2022/06/22 06:51:20;;;;;;;6.03;5.50;;;19.70;99.90;;;;;;5027655;28;20940;-36
2022/06/22 06:53:59;;;;;;;8.77;6.60;;;19.80;99.90;;;;;;5029288;28;20420;-35
2022/06/22 06:56:33;;;;;;;7.63;6.00;;;19.80;99.90;;;;;;5023452;28;20417;-36
2022/06/22 06:59:04;;;;;;;8.73;6.27;;;19.90;99.90;;;;;;5023314;28;20438;-36
2022/06/22 07:01:33;;;;;;;8.77;6.57;;;19.90;99.90;;;;;;5021634;28;20425;-36
2022/06/22 07:04:05;;;;;;;6.20;5.00;;;20.00;99.90;;;;;;5020440;28;20870;-36
2022/06/22 07:06:32;;;;;;;6.70;6.07;;;20.20;99.90;;;;;;5023768;28;20445;-35
2022/06/22 07:09:04;;;;;;;11.97;5.37;;;20.20;99.90;;;;;;5023117;28;20433;-36
2022/06/22 07:11:48;;;;;;;7.03;5.57;;;20.30;99.90;;;;;;5023108;28;20405;-36
2022/06/22 07:14:37;;;;;;;6.27;5.63;;;20.30;99.90;;;;;;5012894;28;20430;-36
2022/06/22 07:17:09;;;;;;;5.57;5.07;;;20.30;99.90;;;;;;5029630;28;20428;-36
2022/06/22 07:19:41;;;;;;;6.57;5.07;;;20.50;99.90;;;;;;5028724;28;21234;-36
2022/06/22 07:22:20;;;;;;;9.23;5.47;;;20.70;99.90;;;;;;5029876;28;20428;-36
2022/06/22 07:25:09;;;;;;;5.27;4.67;;;20.80;99.90;;;;;;5029922;28;20468;-37
2022/06/22 07:27:49;;;;;;;5.40;4.67;;;20.80;99.90;;;;;;5028158;28;20498;-36
2022/06/22 07:30:23;;;;;;;6.53;5.67;;;20.90;99.90;;;;;;5029756;28;20971;-36
2022/06/22 07:33:16;;;;;;;7.10;4.80;;;21.00;99.90;;;;;;5029874;28;20443;-36
2022/06/22 07:36:12;;;;;;;5.20;4.73;;;21.10;99.90;;;;;;5029793;28;20815;-36
2022/06/22 07:38:58;;;;;;;4.90;4.50;;;21.30;99.50;;;;;;5026234;28;20464;-36
2022/06/22 07:41:26;;;;;;;4.60;3.97;;;21.40;99.80;;;;;;5029644;28;20479;-37
2022/06/22 07:44:00;;;;;;;8.60;4.43;;;21.50;99.80;;;;;;5028781;28;21022;-36
2022/06/22 07:46:43;;;;;;;15.30;5.30;;;21.60;99.50;;;;;;5029466;28;20442;-36
2022/06/22 07:49:18;;;;;;;8.53;4.53;;;21.50;99.80;;;;;;5035389;28;20479;-36
2022/06/22 07:51:49;;;;;;;6.30;4.80;;;21.60;99.90;;;;;;5034871;28;20450;-36
2022/06/22 07:54:52;;;;;;;5.23;4.00;;;21.70;99.40;;;;;;5016582;28;20460;-36
2022/06/22 07:57:41;;;;;;;5.13;4.23;;;21.80;99.40;;;;;;5013420;28;20429;-36
2022/06/22 08:00:19;;;;;;;7.63;4.80;;;21.90;99.10;;;;;;5017629;28;20550;-36
2022/06/22 08:02:58;;;;;;;6.97;3.90;;;22.00;99.00;;;;;;5015158;28;20421;-36
2022/06/22 08:05:29;;;;;;;4.50;3.13;;;22.00;99.40;;;;;;5017274;28;20444;-36
2022/06/22 08:08:23;;;;;;;6.50;4.23;;;22.00;99.90;;;;;;5028590;28;20436;-36
2022/06/22 08:11:12;;;;;;;7.17;4.23;;;21.90;99.20;;;;;;5030470;28;20417;-36
2022/06/22 08:13:44;;;;;;;5.80;3.80;;;21.80;99.40;;;;;;5023201;28;20414;-36
2022/06/22 08:16:20;;;;;;;6.97;3.40;;;21.60;99.70;;;;;;5028266;28;20433;-36
2022/06/22 08:18:47;;;;;;;9.30;4.20;;;21.60;99.90;;;;;;5028609;28;20416;-36
2022/06/22 08:21:17;;;;;;;8.73;3.43;;;21.50;99.90;;;;;;5027802;28;20932;-36
2022/06/22 08:23:43;;;;;;;9.77;3.53;;;21.50;99.90;;;;;;5029091;28;20467;-36
2022/06/22 08:26:18;;;;;;;4.63;4.00;;;21.60;99.90;;;;;;5029228;28;20936;-36
2022/06/22 08:28:44;;;;;;;5.87;3.73;;;21.70;99.50;;;;;;5028449;28;20479;-36
2022/06/22 08:31:11;;;;;;;5.57;4.00;;;21.80;99.30;;;;;;5029271;28;20423;-36
2022/06/22 08:33:48;;;;;;;9.97;3.50;;;22.00;99.20;;;;;;5029495;28;20195;-36
2022/06/22 08:36:28;;;;;;;9.17;3.30;;;22.10;98.50;;;;;;5028069;28;20421;-36
2022/06/22 08:39:06;;;;;;;7.17;3.37;;;22.30;98.70;;;;;;5031277;28;20437;-36
2022/06/22 08:41:46;;;;;;;5.13;3.53;;;22.40;98.50;;;;;;5021733;28;20424;-36
2022/06/22 08:44:21;;;;;;;3.57;3.20;;;22.50;97.50;;;;;;5027853;28;20879;-36
2022/06/22 08:47:05;;;;;;;4.10;2.80;;;22.60;97.60;;;;;;5027747;28;21146;-36
2022/06/22 08:49:34;;;;;;;3.20;2.90;;;22.70;97.10;;;;;;5032282;28;20444;-36
2022/06/22 08:52:33;;;;;;;4.27;3.10;;;22.80;97.00;;;;;;5035121;28;20417;-36
2022/06/22 08:55:10;;;;;;;5.27;3.30;;;22.90;96.70;;;;;;5032546;28;20907;-36
2022/06/22 08:58:17;;;;;;;4.83;3.40;;;23.10;96.10;;;;;;5032191;28;20462;-36
2022/06/22 09:01:03;;;;;;;3.50;2.90;;;23.20;96.10;;;;;;5032459;28;20437;-36
2022/06/22 09:03:54;;;;;;;5.90;2.80;;;23.30;95.60;;;;;;5032428;28;20456;-36
2022/06/22 09:06:29;;;;;;;3.27;2.40;;;23.30;94.90;;;;;;5032302;28;20425;-36
2022/06/22 09:09:26;;;;;;;3.43;2.70;;;23.40;94.30;;;;;;5032046;28;20511;-36
2022/06/22 09:12:05;;;;;;;3.83;2.57;;;23.60;94.20;;;;;;5032247;28;20417;-36
2022/06/22 09:15:08;;;;;;;3.60;2.70;;;23.60;95.00;;;;;;5032131;28;20419;-36
2022/06/22 09:17:46;;;;;;;3.50;2.90;;;23.70;94.30;;;;;;5029416;28;20534;-36
2022/06/22 09:20:46;;;;;;;4.23;3.00;;;23.80;94.50;;;;;;5031908;28;20417;-37
2022/06/22 09:23:39;;;;;;;5.23;2.83;;;23.90;93.10;;;;;;5022854;28;20552;-36
2022/06/22 09:26:16;;;;;;;5.43;2.80;;;24.00;93.80;;;;;;5020314;28;20755;-36
2022/06/22 09:28:48;;;;;;;5.50;2.50;;;24.10;93.70;;;;;;5028885;28;20421;-36
2022/06/22 09:31:26;;;;;;;3.40;2.20;;;24.10;93.40;;;;;;5031765;28;20455;-36
2022/06/22 09:34:21;;;;;;;5.47;3.00;;;24.20;93.80;;;;;;5026550;28;20536;-36
2022/06/22 09:37:19;;;;;;;2.93;2.73;;;24.10;93.00;;;;;;5022089;28;20449;-36
2022/06/22 09:40:03;;;;;;;3.43;2.70;;;24.20;92.30;;;;;;5028875;28;20468;-36
2022/06/22 09:42:44;;;;;;;4.33;2.90;;;24.30;92.70;;;;;;5026381;28;20413;-36
2022/06/22 09:45:34;;;;;;;2.97;2.70;;;24.40;93.70;;;;;;5026841;28;20606;-36
2022/06/22 09:48:11;;;;;;;7.80;3.73;;;24.50;93.60;;;;;;5016446;28;20468;-36
2022/06/22 09:51:13;;;;;;;3.63;3.33;;;24.50;92.90;;;;;;5024822;28;20474;-37
2022/06/22 09:57:20;;;;;;;6.60;4.17;;;24.50;93.60;;;;;;5029210;28;21192;-37
2022/06/22 09:59:54;;;;;;;7.07;3.97;;;24.60;93.60;;;;;;5021416;28;20436;-36
2022/06/22 10:02:52;;;;;;;6.37;3.20;;;24.60;93.20;;;;;;5012814;28;20448;-36
2022/06/22 10:05:51;;;;;;;4.37;3.20;;;24.70;93.80;;;;;;5022519;28;20912;-37
2022/06/22 10:08:31;;;;;;;3.50;3.20;;;24.80;92.30;;;;;;5018684;28;20428;-36
2022/06/22 10:11:11;;;;;;;4.23;3.50;;;24.90;93.20;;;;;;5013261;28;20440;-36
2022/06/22 10:14:23;;;;;;;6.17;3.30;;;24.90;91.80;;;;;;5031166;28;20429;-37
2022/06/22 10:17:23;;;;;;;4.17;2.70;;;24.90;90.60;;;;;;5025640;28;20512;-36
2022/06/22 10:19:52;;;;;;;3.97;2.73;;;24.90;91.50;;;;;;5019743;28;20486;-36
2022/06/22 10:22:39;;;;;;;2.80;2.60;;;25.00;91.40;;;;;;5017627;28;20521;-36
2022/06/22 10:25:28;;;;;;;5.63;3.07;;;25.10;92.50;;;;;;5022465;28;20488;-36
2022/06/22 10:28:18;;;;;;;3.60;3.30;;;25.10;91.60;;;;;;5025292;28;20428;-36
2022/06/22 10:31:04;;;;;;;5.50;3.33;;;25.10;92.10;;;;;;5025295;28;20532;-36
2022/06/22 10:33:30;;;;;;;3.43;3.10;;;25.20;90.10;;;;;;5013454;28;21092;-36
2022/06/22 10:36:33;;;;;;;4.07;2.77;;;25.10;90.60;;;;;;5022488;28;20504;-37
2022/06/22 10:39:12;;;;;;;6.00;3.00;;;25.20;91.00;;;;;;5029777;28;20194;-37
2022/06/22 10:45:09;;;;;;;3.40;2.90;;;25.40;91.90;;;;;;5027976;28;20465;-36
2022/06/22 10:47:38;;;;;;;5.73;3.43;;;25.50;91.10;;;;;;5018599;28;20500;-36
2022/06/22 10:50:13;;;;;;;7.33;3.10;;;25.50;90.10;;;;;;5042530;28;20428;-36
2022/06/22 10:52:42;;;;;;;5.07;3.27;;;25.60;91.50;;;;;;5028193;28;20462;-36
2022/06/22 10:55:18;;;;;;;4.80;2.90;;;25.50;91.20;;;;;;5029859;28;20456;-36
2022/06/22 10:58:07;;;;;;;3.30;3.00;;;25.60;88.60;;;;;;5029713;28;20986;-36
2022/06/22 11:00:58;;;;;;;4.20;2.70;;;25.50;90.20;;;;;;5015493;28;20480;-36
2022/06/22 11:03:32;;;;;;;4.83;2.73;;;25.60;90.10;;;;;;5027112;28;20460;-37
2022/06/22 11:06:20;;;;;;;3.43;3.03;;;25.70;90.50;;;;;;5024429;28;20417;-36
2022/06/22 11:09:09;;;;;;;7.10;3.00;;;25.60;87.20;;;;;;5025307;28;20416;-36
2022/06/22 11:12:05;;;;;;;5.33;2.90;;;25.70;91.00;;;;;;5016656;28;20532;-36
2022/06/22 11:14:43;;;;;;;3.50;3.00;;;25.80;91.30;;;;;;5020331;28;20422;-36
2022/06/22 11:17:23;;;;;;;2.63;2.43;;;26.00;87.00;;;;;;5029239;28;20962;-36
2022/06/22 11:20:13;;;;;;;3.20;2.77;;;26.00;87.40;;;;;;5030025;28;20420;-37
2022/06/22 11:22:45;;;;;;;3.87;2.60;;;26.10;87.50;;;;;;5030065;28;20488;-37
2022/06/22 11:31:53;;;;;;;3.17;2.50;;;26.20;82.30;;;;;;5019093;28;20425;-36
2022/06/22 11:34:33;;;;;;;4.13;3.00;;;26.10;81.90;;;;;;5029603;28;21140;-38
2022/06/22 11:37:21;;;;;;;4.57;2.80;;;26.20;87.20;;;;;;5029021;28;20409;-36
2022/06/22 11:40:10;;;;;;;3.37;2.67;;;26.20;86.20;;;;;;5029677;28;20743;-36
2022/06/22 11:42:49;;;;;;;4.47;3.10;;;26.30;88.10;;;;;;5017562;28;20429;-37
2022/06/22 11:45:55;;;;;;;3.27;2.97;;;26.30;86.10;;;;;;5028482;28;20453;-37
2022/06/22 11:48:42;;;;;;;3.50;3.20;;;26.40;85.00;;;;;;5028640;28;20421;-36
2022/06/22 11:51:44;;;;;;;3.03;2.63;;;26.40;84.20;;;;;;5029270;28;20468;-36
2022/06/22 11:54:40;;;;;;;5.33;2.93;;;26.40;82.70;;;;;;5025013;28;20825;-37
2022/06/22 11:57:33;;;;;;;4.70;2.40;;;26.50;85.70;;;;;;5027907;28;20413;-36
2022/06/22 12:00:16;;;;;;;3.53;2.80;;;26.60;86.80;;;;;;5029445;28;20440;-36
2022/06/22 12:02:58;;;;;;;3.70;2.50;;;26.70;84.20;;;;;;5029464;28;20416;-36
2022/06/22 12:05:54;;;;;;;3.33;2.20;;;26.60;81.30;;;;;;5029262;28;20468;-37
2022/06/22 12:08:38;;;;;;;5.03;2.63;;;26.60;85.40;;;;;;5028747;28;20448;-37
2022/06/22 12:11:27;;;;;;;5.10;3.10;;;26.50;83.30;;;;;;5029454;28;20491;-36
2022/06/22 12:16:46;;;;;;;2.63;2.43;;;26.70;82.90;;;;;;5015847;28;20443;-36
2022/06/22 12:19:49;;;;;;;4.23;2.33;;;26.70;80.90;;;;;;5026141;28;20417;-37
2022/06/22 12:22:37;;;;;;;2.67;2.20;;;26.70;80.10;;;;;;5029185;28;20421;-37
2022/06/22 12:25:17;;;;;;;3.90;2.33;;;26.70;79.60;;;;;;5031094;28;20595;-38
2022/06/22 12:28:00;;;;;;;2.50;2.30;;;26.80;84.20;;;;;;5032503;28;20902;-36
2022/06/22 12:30:46;;;;;;;3.87;3.07;;;26.80;81.40;;;;;;5031310;28;20950;-37
2022/06/22 12:33:30;;;;;;;3.37;2.50;;;26.90;82.00;;;;;;5033172;28;20475;-36
2022/06/22 12:36:11;;;;;;;4.20;2.70;;;26.80;80.70;;;;;;5031597;28;20443;-37
2022/06/22 12:38:55;;;;;;;4.80;3.00;;;26.90;81.60;;;;;;5031974;28;20922;-37
2022/06/22 12:41:52;;;;;;;3.23;2.50;;;26.90;82.60;;;;;;5032658;28;20452;-36
2022/06/22 12:44:49;;;;;;;4.63;2.77;;;26.90;80.50;;;;;;5031151;28;20547;-36
2022/06/22 12:47:35;;;;;;;5.30;3.33;;;26.90;77.60;;;;;;5029019;28;20508;-36
2022/06/22 12:50:16;;;;;;;2.70;2.50;;;26.80;81.00;;;;;;5032479;28;20425;-36
2022/06/22 12:52:46;;;;;;;2.83;2.63;;;26.80;81.00;;;;;;5030902;28;20468;-37
2022/06/22 12:55:18;;;;;;;5.20;2.87;;;26.80;79.40;;;;;;5031110;28;20880;-36
2022/06/22 12:57:59;;;;;;;2.83;2.50;;;26.70;78.60;;;;;;5030352;28;20533;-36
2022/06/22 13:00:25;;;;;;;3.13;2.83;;;26.70;80.10;;;;;;5032418;28;20440;-36
2022/06/22 13:02:58;;;;;;;3.67;2.43;;;26.70;77.20;;;;;;5032485;28;20425;-36
2022/06/22 13:05:35;;;;;;;4.20;2.50;;;26.80;80.70;;;;;;5032190;28;21422;-36
2022/06/22 13:08:16;;;;;;;3.20;2.77;;;26.80;81.30;;;;;;5031717;28;20412;-36
2022/06/22 13:10:45;;;;;;;3.43;3.13;;;26.80;76.60;;;;;;5032382;28;20431;-36
2022/06/22 13:13:28;;;;;;;3.77;2.93;;;26.70;77.40;;;;;;5030775;28;20508;-37
2022/06/22 13:16:09;;;;;;;2.97;2.60;;;26.70;78.40;;;;;;5032170;28;20417;-37
2022/06/22 13:18:44;;;;;;;4.70;3.00;;;26.70;75.50;;;;;;5031860;28;20448;-36
2022/06/22 13:21:16;;;;;;;2.63;2.30;;;26.70;75.30;;;;;;5032029;28;20965;-36
2022/06/22 13:24:17;;;;;;;6.17;2.80;;;26.80;77.30;;;;;;5031917;28;20971;-37
2022/06/22 13:26:52;;;;;;;5.57;3.03;;;26.80;79.10;;;;;;5029246;28;20412;-36
2022/06/22 13:29:31;;;;;;;4.43;3.17;;;26.90;81.30;;;;;;5032005;28;20771;-37
2022/06/22 13:32:00;;;;;;;4.40;2.77;;;27.00;82.10;;;;;;5032042;28;20421;-36
2022/06/22 13:34:42;;;;;;;2.73;2.50;;;27.00;82.80;;;;;;5031986;28;20421;-37
2022/06/22 13:37:21;;;;;;;3.90;2.73;;;27.00;81.80;;;;;;5029660;28;20463;-37
2022/06/22 13:40:37;;;;;;;3.30;2.70;;;27.00;77.50;;;;;;5031816;28;20430;-37
2022/06/22 13:43:34;;;;;;;3.60;3.20;;;27.10;77.90;;;;;;4999504;28;20426;-36
2022/06/22 13:46:28;;;;;;;3.27;2.97;;;27.10;69.90;;;;;;5022122;28;20405;-36
2022/06/22 13:49:13;;;;;;;2.60;2.40;;;27.00;68.30;;;;;;5029427;28;20441;-37
2022/06/22 13:51:52;;;;;;;3.43;2.97;;;27.00;71.10;;;;;;5030014;28;20927;-36
2022/06/22 13:54:37;;;;;;;2.80;2.60;;;27.00;73.80;;;;;;5030197;28;20856;-37
2022/06/22 13:57:12;;;;;;;4.40;3.00;;;26.90;72.20;;;;;;5027009;28;20429;-37
2022/06/22 13:59:51;;;;;;;3.43;2.70;;;26.90;73.10;;;;;;5023238;28;21126;-37
2022/06/22 14:02:35;;;;;;;2.90;2.60;;;26.80;73.20;;;;;;5011841;28;20762;-36
2022/06/22 14:05:30;;;;;;;3.43;3.07;;;26.90;75.80;;;;;;5023901;28;20467;-36
2022/06/22 14:08:17;;;;;;;3.77;3.20;;;26.90;76.10;;;;;;5025640;28;20417;-36
2022/06/22 14:11:11;;;;;;;5.83;2.97;;;26.90;75.00;;;;;;5027590;28;20536;-37